Immagine casuale
Testata Regione Lazio ARSIAL SIARL

Ultima Misura Rilevata

Temperatura, Umidità, Pioggia, Pressione Radiazione Solare, Venti, Evapotraspirazione, ecc.
Temperature diurne e notturne Direzione vento Legenda
Prov Stazione Data TMin TMed TMax UMed Pioggia PMed
FR ALATRI Basciano 24/09/2018 15,3 21,9 30,9 73 0,4 1.015
FR ALVITO Az. Ist. S. Benedetto 24/09/2018 14 20,4 29 78 6 1.017
FR ANAGNI La Gloria 24/09/2018 15,2 21,6 30,1 79 2,2 1.016
FR ARPINO Vigne Piane 24/09/2018 16,6 21,2 29,1 73 0 1.016
FR BOVILLE ERNICA Sasso 24/09/2018 16,8 22,5 31,4 54 0 1.016
FR ESPERIA Modale 24/09/2018 16,2 22 31,3 72 0 1.016
FR PASTENA Acero 24/09/2018 13,9 21,2 29,4 74 0 1.014
FR PIGLIO Civitella 24/09/2018 15 21,2 30 79 2,4 1.016
FR PONTECORVO Melfi di Sotto 24/09/2018 15,6 22,3 31,5 71 0 ----
FR S. ELIA FIUMERAPIDO Portella 24/09/2018 17,6 22,4 30,5 69 0 1.016
FR S. GIORGIO A LIRI Porto 24/09/2018 15,4 22,2 31,8 71 0 1.015
FR SGURGOLA Campo Lungo 24/09/2018 14,2 21,9 30,9 79 6,2 ----
FR VALLECORSA Serbatoio comunale 24/09/2018 17,1 21 27,3 76 0,2 1.018
LT APRILIA Le Ferriere 24/09/2018 18 23,1 29,7 84 0 1.015
LT CISTERNA B.go Carso 24/09/2018 17,3 22,1 27,6 92 0 ----
LT CISTERNA Doganella di Ninfa 24/09/2018 17,6 23 30,5 84 0,2 1.014
LT CORI Portone 24/09/2018 18,2 23 29,5 81 0,2 1.015
LT FONDI Capratica 24/09/2018 17,7 23,7 29,6 78 0 1.015
LT FORMIA Loc. Gianola 24/09/2018 16,9 23 28 73 4,2 ----
LT ITRI Valle Quercia 24/09/2018 18,8 23,1 28,6 73 0 1.013
LT MAENZA Casacotta 24/09/2018 17,8 23,1 29,5 78 0 1.013
LT MINTURNO Pulcherini 24/09/2018 19,5 23,4 29,4 72 0 1.015
LT PONTINIA Cotarda 24/09/2018 17,7 24,1 30,7 75 0 1.017
LT SABAUDIA Acquaviva 24/09/2018 19,2 23,2 28,5 82 0 1.015
LT SONNINO Frasso 24/09/2018 21,2 25,2 31,4 69 0 1.015
RI ACCUMOLI Terracino 24/09/2018 7,9 13,2 21,4 93 0 1.020
RI BORGOVELINO Ponte Basso 24/09/2018 14,9 19,7 29,8 71 0 1.015
RI CANTALUPO S. Francesco 24/09/2018 16,4 23 28,7 67 0 ----
RI CASTEL DI TORA Monte di Tora 24/09/2018 14,8 19,8 30,4 74 0 1.015
RI CASTELNUOVO FARFA C. Spadone 24/09/2018 18,4 23,2 30,4 66 0,2 ----
RI CONFIGNI Portella 24/09/2018 17,5 21,9 29,9 67 0,2 1.019
RI FARA SABINA Canneto 24/09/2018 18,4 23,4 31,4 65 0 1.012
RI FARA SABINA Sant'Andrea 24/09/2018 19,3 23,3 30,1 66 0 ----
RI MONTELEONE S. Prato Camino 24/09/2018 15,7 21 30 71 0 1.017
RI MONTOPOLI IN SABINA Colle Arcone 24/09/2018 19,3 23,3 30,4 71 0 ----
RI MONTOPOLI IN SABINA Villa Caprola 24/09/2018 18,9 24,3 32,3 77 0 ----
RI POGGIO CATINO Pastine 24/09/2018 18,7 23,3 29,4 72 1,3 ----
RI POGGIO NATIVO Casali 24/09/2018 17 21,2 28,2 75 0 ----
RI RIETI Piana di Rieti 24/09/2018 15,5 20,8 27,8 63 0 1.017
RI SCANDRIGLIA Ponticelli 24/09/2018 16,6 21,5 27,8 77 0 ----
RM AGOSTA La Cisterna 24/09/2018 14,4 20 29,7 78 0,2 1.017
RM BRACCIANO Prato Pianciano 24/09/2018 19,1 22,8 29,7 74 0,8 1.012
RM CANALE MONTERANO Monte Virginio 24/09/2018 17,1 21,6 30,8 79 1,2 1.014
RM CERVETERI Campo di Mare 24/09/2018 20,9 24 27,9 68 0,1 ----
RM CIVITELLA S.PAOLO Le Cese 24/09/2018 18,4 22,5 30,6 68 0 1.016
RM FIUMICINO Maccarese 24/09/2018 19,9 23,6 28,3 81 0,4 1.015
RM FIUMICINO Testa di Lepre 24/09/2018 18,5 23,2 29,6 74 0,6 ----
RM FORMELLO Perazzeta 24/09/2018 19,7 23 29,3 71 0,3 ----
RM FRASCATI Prata Porci 24/09/2018 17,8 23,3 30,2 78 3 1.016
RM GENAZZANO Coop. La Sonnina 24/09/2018 15,2 21,1 28,7 82 8 1.016
RM GROTTAFERRATA Valle Marciana 24/09/2018 16,4 23 28,6 76 10 1.015
RM LICENZA Colle Franco 24/09/2018 14,9 20,4 28,8 73 0,2 1.015
RM MARCELLINA V. Campetella 24/09/2018 18,4 23,7 30,1 71 0,2 ----
RM MARINO Gotto d'Oro 24/09/2018 16,7 23,6 30,5 88 14 1.016
RM MONTECOMPATRI Colle Mattia 24/09/2018 16,6 22,8 29,9 77 2,6 1.015
RM MONTECOMPATRI Pantano Borghese 24/09/2018 N.D. N.D. N.D. N.D. N.D. N.D.
RM MONTELIBRETTI Bruciati 24/09/2018 17,1 23,6 31,5 68 0 ----
RM MONTEPORZIO Camaldoli 24/09/2018 14,3 19,7 26,4 88 5,6 1.016
RM MONTEROTONDO Grotta Marozza 24/09/2018 19 23,8 30,4 64 0 1.015
RM PALOMBARA Fonte Grande 24/09/2018 15,2 23,4 30,2 60 0 ----
RM ROMA Capocotta 24/09/2018 N.D. N.D. N.D. N.D. N.D. ----
RM ROMA Ponte di Nona 24/09/2018 19,2 24,1 30,2 78 0 1.015
RM ROMA Via Lanciani 38 24/09/2018 20,6 24,3 29,5 72 0 1.014
RM S. GREGORIO C. Faustiniano 24/09/2018 17,5 22,1 29,9 73 2,6 1.017
RM VELLETRI Cantina Sperimentale 24/09/2018 16,4 22 29,7 83 3,4 1.015
RM VELLETRI Prato Lungo 24/09/2018 18,9 23,5 29,7 78 0,4 ----
RM ZAGAROLO Santa Apollara 24/09/2018 17 22,4 29,8 80 0,2 ----
VT ACQUAPENDENTE Falconiera 24/09/2018 14,1 19,9 29,2 78 0,4 1.019
VT BAGNOREGIO Castell Cellesi 24/09/2018 15,3 18,5 25,6 69 0 ----
VT BASSANO R. Piano Mola 24/09/2018 16,3 21 28,8 79 0,8 1.014
VT BLERA Puntoni 24/09/2018 17,4 22,2 29,9 74 0 1.014
VT BOLSENA Capone 24/09/2018 15,5 20,9 30,1 75 0,2 1.016
VT BOLSENA Rentica 24/09/2018 15,5 20,6 27,5 75 0,2 ----
VT CANINO Diga Timone 24/09/2018 17,9 22,3 30,8 73 4 1.013
VT CANINO Pianacce 24/09/2018 18,3 22,8 30 71 0,4 1.015
VT CANINO San Valeriano 24/09/2018 17,1 21,7 29 76 6,3 ----
VT CELLENO Acquaforte 24/09/2018 16 20,2 27,4 82 0 ----
VT CORCHIANO Pantalone 24/09/2018 16,7 22,2 32,3 72 0 1.016
VT FARNESE Gressa 24/09/2018 N.D. N.D. N.D. N.D. N.D. ----
VT FARNESE Pian di Sala 24/09/2018 15 20,2 28,8 78 0,3 ----
VT GROTTE DI CASTRO Borghetto 24/09/2018 15,4 21,1 28,8 76 0,2 1.009
VT GROTTE DI CASTRO Purgatorio 24/09/2018 14,1 20 28,9 79 0,4 1.017
VT LATERA Centro Florovivaistico 24/09/2018 14,8 20,8 30,5 69 0,8 1.014
VT MONTALTO Le Murelle 24/09/2018 19,8 23,9 27,8 69 0 1.015
VT MONTALTO Pescia Romana 24/09/2018 20 24 28,7 69 0 1.015
VT MONTEFIASCONE Commenda 24/09/2018 17,1 21,6 29,3 77 0 ----
VT RONCIGLIONE Ponterotto 24/09/2018 17,6 22 29,3 68 0,2 ----
VT SORIANO CIMINO Pantane 24/09/2018 15,6 21,3 31,4 75 0 1.015
VT SORIANO CIMINO Poggio di Chia 24/09/2018 15 21,1 29,1 79 0 ----
VT TARQUINIA Portaccia 24/09/2018 19,9 24,4 29,4 71 0,4 ----
VT TUSCANIA Montebello 24/09/2018 17,8 22,4 28,3 71 0 ----
VT VETRALLA Marchionato 24/09/2018 17,1 21,9 28,7 79 0 ----
VT VITERBO Pisello 24/09/2018 16,8 21,2 28,4 77 0 ----
N.D. = Dati Non Disponibili
---- = Sensore non presente

Le misure esposte sono grezze, ovvero non sono state validate